Pacific - South Coast: Past 24 Hour Conditions

 

East Dellwood - 46207

10:00 PM PDT 19 April 2014Buoy position: 50.88N 129.93W
This table is a summary of hourly weather conditions for the past 24 hours.
Date / Time
(PDT)
Wind(knots) Wave height(m) Wave period(s) Pressure(kPa) Air tempC) Water tempC)
19 April 2014
22:00 SSW 14 gust 18 7.6 16.0 101.0 8 9
21:00 SSW 19 gust 23 7.5 15.0 100.9 9 9
20:00 SSW 19 gust 27 7.5 17.0 100.7 9 9
19:00 SSW 21 gust 27 6.6 16.0 100.6 9 9
18:00 SW 21 gust 27 6.9 14.0 100.4 9 9
17:00 SW 25 gust 31 5.1 12.0 100.2 9 9
16:00 SW 23 gust 27 4.7 11.0 100.1 9 9
15:00 SSW 23 gust 29 4.6 12.0 99.9 9 9
14:00 SSW 23 gust 29 4.7 11.0 99.7 9 9
13:00 S 23 gust 27 5.0 11.0 99.5 9 9
12:00 S 25 gust 31 5.4 11.0 99.4 9 9
11:00 SSE 25 gust 31 5.9 11.0 99.4 9 9
10:00 SSE 27 gust 33 7.4 11.0 99.3 9 9
9:00 SE 31 gust 41 7.4 11.0 99.3 9 9
8:00 SE 35 gust 43 7.8 12.0 99.3 8 9
7:00 SE 35 gust 47 6.9 11.0 99.4 9 9
6:00 SE 37 gust 47 6.7 11.0 99.4 9 9
5:00 SSE 35 gust 47 7.1 11.0 99.5 8 9
4:00 SE 39 gust 49 6.4 10.0 99.5 9 9
3:00 SE 35 N/A N/A 99.6 9 9
2:00 SE 35 gust 47 5.9 9.0 99.8 9 9
1:00 SE 35 gust 45 5.1 8.0 99.8 9 9
0:00 SE 35 gust 43 4.3 8.0 100.0 9 9
18 April 2014
23:00 SE 35 gust 45 4.0 7.0 100.2 9 9
22:00 SE 33 gust 45 3.4 7.0 100.3 9 9
 
Map of Pacific - South Coast marine weather areas Tsawwassen Ferry Terminal South Nomad - 46036 Sentry Shoal - 46131 South Brooks - 46132 Halibut Bank - 46146 South Moresby - 46147 South Hecate Strait - 46185 West Sea Otter - 46204 La Perouse Bank - 46206 East Dellwood - 46207 Discovery Island Esquimalt Harbour Kelp Reefs Malahat Race Rocks Lightstation Saturna Island Sheringham Point University of Victoria Victoria Gonzales Victoria Int'l Airport Ballenas Islands Campbell River Airport Comox Airport Entrance Island Fanny Island Nanaimo Airport Port Hardy Airport Sisters Islets Estevan Point Sartine Island Solander Island Tofino Airport Grief Point Powell River Airport Sechelt Cape St.James Bella Bella Airport Bella Coola Airport Cathedral Point Herbert Island Point Atkinson Sand Heads Lightstation Vancouver Harbour Vancouver Int'l Airport West Vancouver Port Alberni Howe Sound - Pam Rocks Squamish Airport